createdAt,value
2023-10-30T00:02:21.890Z,11.71
2023-10-30T00:04:50.426Z,11.70
2023-10-30T00:07:19.322Z,11.70
2023-10-30T00:09:46.481Z,11.71
2023-10-30T00:12:13.626Z,11.68
2023-10-30T00:14:40.653Z,11.70
2023-10-30T00:17:07.678Z,11.69
2023-10-30T00:19:35.000Z,11.69
2023-10-30T00:22:02.019Z,11.69
2023-10-30T00:24:31.080Z,11.69
2023-10-30T00:26:58.159Z,11.68
2023-10-30T00:29:25.357Z,11.69
2023-10-30T00:31:52.451Z,11.69
2023-10-30T00:34:19.652Z,11.69
2023-10-30T00:36:46.745Z,11.69
2023-10-30T00:39:13.857Z,11.68
2023-10-30T00:41:40.879Z,11.67
2023-10-30T00:44:07.973Z,11.68
2023-10-30T00:46:35.012Z,11.67
2023-10-30T00:49:02.012Z,11.66
2023-10-30T00:51:29.039Z,11.65
2023-10-30T00:53:56.109Z,11.65
2023-10-30T00:56:23.108Z,11.64
2023-10-30T00:58:50.107Z,11.64
2023-10-30T01:01:18.331Z,11.64
2023-10-30T01:03:46.833Z,11.62
2023-10-30T01:06:13.977Z,11.61
2023-10-30T01:08:41.532Z,11.59
2023-10-30T01:11:08.544Z,11.59
2023-10-30T01:13:37.378Z,11.58
2023-10-30T01:16:06.573Z,11.57
2023-10-30T01:18:33.846Z,11.56
2023-10-30T01:21:00.960Z,11.57
2023-10-30T01:23:28.078Z,11.54
2023-10-30T01:25:55.070Z,11.53
2023-10-30T01:28:22.092Z,11.52
2023-10-30T01:30:49.096Z,11.49
2023-10-30T01:33:16.177Z,11.48
2023-10-30T01:35:43.292Z,11.48
2023-10-30T01:38:10.340Z,11.44
2023-10-30T01:40:37.484Z,11.42
2023-10-30T01:43:11.081Z,11.38
2023-10-30T01:45:38.176Z,11.36
2023-10-30T01:48:05.851Z,11.35
2023-10-30T01:50:33.855Z,11.32
2023-10-30T01:53:03.397Z,11.27
2023-10-30T01:55:31.311Z,11.25
2023-10-30T01:57:58.470Z,11.23
2023-10-30T02:00:26.107Z,11.19
2023-10-30T02:02:54.616Z,11.17
2023-10-30T02:05:21.771Z,11.16
2023-10-30T02:07:49.286Z,11.12
2023-10-30T02:10:16.485Z,11.08
2023-10-30T02:12:44.221Z,11.04
2023-10-30T02:15:11.410Z,10.99
2023-10-30T02:17:38.547Z,10.98
2023-10-30T02:20:06.216Z,10.95
2023-10-30T02:22:33.228Z,10.88
2023-10-30T02:25:00.515Z,10.89
2023-10-30T02:27:27.586Z,10.86
2023-10-30T02:29:54.640Z,10.84
2023-10-30T02:32:21.792Z,10.83
2023-10-30T02:34:48.865Z,10.81
2023-10-30T02:37:16.976Z,10.80
2023-10-30T02:39:44.014Z,10.80
2023-10-30T02:42:11.320Z,10.78
2023-10-30T02:44:38.497Z,10.78
2023-10-30T02:47:05.598Z,10.78
2023-10-30T02:49:32.617Z,10.77
2023-10-30T02:52:00.159Z,10.80
2023-10-30T02:54:27.236Z,10.80
2023-10-30T02:56:54.573Z,10.77
2023-10-30T02:59:21.618Z,10.79
2023-10-30T03:01:48.669Z,10.77
2023-10-30T03:04:18.370Z,10.80
2023-10-30T03:06:45.865Z,10.76
2023-10-30T03:09:12.935Z,10.75
2023-10-30T03:11:39.919Z,10.76
2023-10-30T03:14:07.314Z,10.74
2023-10-30T03:16:34.366Z,10.73
2023-10-30T03:19:01.441Z,10.73
2023-10-30T03:21:28.521Z,10.70
2023-10-30T03:23:56.247Z,10.70
2023-10-30T03:26:25.433Z,10.70
2023-10-30T03:28:52.741Z,10.69
2023-10-30T03:31:19.857Z,10.69
2023-10-30T03:33:49.042Z,10.70
2023-10-30T03:36:25.086Z,10.69
2023-10-30T03:38:52.559Z,10.70
2023-10-30T03:41:20.511Z,10.68
2023-10-30T03:43:48.151Z,10.67
2023-10-30T03:46:15.458Z,10.66
2023-10-30T03:48:43.676Z,10.66
2023-10-30T03:51:10.787Z,10.65
2023-10-30T03:53:37.788Z,10.63
2023-10-30T03:56:08.408Z,10.63
2023-10-30T03:58:36.134Z,10.60
2023-10-30T04:01:09.949Z,10.59
2023-10-30T04:03:37.139Z,10.60
2023-10-30T04:06:05.103Z,10.61
2023-10-30T04:08:32.372Z,10.62
2023-10-30T04:10:59.537Z,10.62
2023-10-30T04:13:26.601Z,10.62
2023-10-30T04:15:53.688Z,10.63
2023-10-30T04:18:20.893Z,10.65
2023-10-30T04:20:47.989Z,10.63
2023-10-30T04:23:14.982Z,10.64
2023-10-30T04:25:41.953Z,10.65
2023-10-30T04:28:09.026Z,10.67
2023-10-30T04:30:36.667Z,10.64
2023-10-30T04:33:03.926Z,10.66
2023-10-30T04:35:30.963Z,10.66
2023-10-30T04:37:58.017Z,10.64
2023-10-30T04:40:25.067Z,10.65
2023-10-30T04:42:52.088Z,10.65
2023-10-30T04:45:19.370Z,10.67
2023-10-30T04:47:46.504Z,10.66
2023-10-30T04:50:13.640Z,10.64
2023-10-30T04:52:40.660Z,10.67
2023-10-30T04:55:08.074Z,10.65
2023-10-30T04:57:35.064Z,10.66
2023-10-30T05:00:03.819Z,10.65
2023-10-30T05:02:30.988Z,10.66
2023-10-30T05:04:57.992Z,10.66
2023-10-30T05:07:25.013Z,10.66
2023-10-30T05:09:52.417Z,10.65
2023-10-30T05:12:19.755Z,10.66
2023-10-30T05:14:46.732Z,10.64
2023-10-30T05:17:14.317Z,10.64
2023-10-30T05:19:41.376Z,10.64
2023-10-30T05:22:08.393Z,10.63
2023-10-30T05:24:35.496Z,10.63
2023-10-30T05:27:02.549Z,10.63
2023-10-30T05:29:29.527Z,10.64
2023-10-30T05:31:56.569Z,10.63
2023-10-30T05:34:25.581Z,10.66
2023-10-30T05:36:52.686Z,10.63
2023-10-30T05:39:19.713Z,10.64
2023-10-30T05:41:47.296Z,10.62
2023-10-30T05:44:14.354Z,10.64
2023-10-30T05:46:41.377Z,10.64
2023-10-30T05:49:08.615Z,10.63
2023-10-30T05:51:35.618Z,10.64
2023-10-30T05:54:02.606Z,10.66
2023-10-30T05:56:29.614Z,10.63
2023-10-30T05:58:58.372Z,10.66
2023-10-30T06:01:25.461Z,10.68
2023-10-30T06:03:52.520Z,10.68
2023-10-30T06:06:19.676Z,10.69
2023-10-30T06:08:46.682Z,10.69
2023-10-30T06:11:13.729Z,10.68
2023-10-30T06:13:40.728Z,10.69
2023-10-30T06:16:07.833Z,10.69
2023-10-30T06:18:34.885Z,10.70
2023-10-30T06:21:02.950Z,10.68
2023-10-30T06:23:29.957Z,10.70
2023-10-30T06:25:57.009Z,10.69
2023-10-30T06:28:24.029Z,10.69
2023-10-30T06:30:51.381Z,10.69
2023-10-30T06:33:18.480Z,10.70
2023-10-30T06:35:45.530Z,10.70
2023-10-30T06:38:12.508Z,10.70
2023-10-30T06:40:39.520Z,10.70
2023-10-30T06:43:06.485Z,10.70
2023-10-30T06:45:33.534Z,10.72
2023-10-30T06:48:00.595Z,10.71
2023-10-30T06:50:27.838Z,10.72
2023-10-30T06:52:54.902Z,10.72
2023-10-30T06:55:21.870Z,10.71
2023-10-30T06:57:48.893Z,10.71
2023-10-30T07:00:16.168Z,10.70
2023-10-30T07:02:43.297Z,10.71
2023-10-30T07:05:10.360Z,10.72
2023-10-30T07:07:37.552Z,10.72
2023-10-30T07:10:05.140Z,10.71
2023-10-30T07:12:32.228Z,10.72
2023-10-30T07:14:59.248Z,10.72
2023-10-30T07:17:26.371Z,10.72
2023-10-30T07:19:53.577Z,10.72
2023-10-30T07:22:21.022Z,10.73
2023-10-30T07:24:48.254Z,10.73
2023-10-30T07:27:17.701Z,10.73
2023-10-30T07:29:46.512Z,10.74
2023-10-30T07:32:13.578Z,10.74
2023-10-30T07:34:42.700Z,10.75
2023-10-30T07:37:09.698Z,10.77
2023-10-30T07:39:36.895Z,10.76
2023-10-30T07:42:04.222Z,10.77
2023-10-30T07:44:31.200Z,10.76
2023-10-30T07:46:58.355Z,10.78
2023-10-30T07:49:25.460Z,10.78
2023-10-30T07:51:52.642Z,10.76
2023-10-30T07:54:19.711Z,10.80
2023-10-30T07:56:46.807Z,10.83
2023-10-30T07:59:13.794Z,10.89
2023-10-30T08:01:41.203Z,10.95
2023-10-30T08:04:10.768Z,11.00
2023-10-30T08:06:38.152Z,11.04
2023-10-30T08:09:06.152Z,11.10
2023-10-30T08:11:33.541Z,11.17
2023-10-30T08:14:00.632Z,11.22
2023-10-30T08:16:27.759Z,11.24
2023-10-30T08:18:54.893Z,11.28
2023-10-30T08:21:21.927Z,11.28
2023-10-30T08:23:48.964Z,11.28
2023-10-30T08:26:15.997Z,11.29
2023-10-30T08:28:45.799Z,11.29
2023-10-30T08:31:12.954Z,11.31
2023-10-30T08:33:40.055Z,11.33
2023-10-30T08:36:07.497Z,11.35
2023-10-30T08:38:34.505Z,11.36
2023-10-30T08:41:01.536Z,11.36
2023-10-30T08:43:28.519Z,11.39
2023-10-30T08:45:55.691Z,11.41
2023-10-30T08:48:22.861Z,11.45
2023-10-30T08:50:50.653Z,11.53
2023-10-30T08:53:18.358Z,11.60
2023-10-30T08:55:45.762Z,11.68
2023-10-30T08:58:12.749Z,11.76
2023-10-30T09:00:39.807Z,11.84
2023-10-30T09:03:07.321Z,11.92
2023-10-30T09:05:34.645Z,12.00
2023-10-30T09:08:01.753Z,12.11
2023-10-30T09:10:33.300Z,12.21
2023-10-30T09:13:00.413Z,12.31
2023-10-30T09:15:28.594Z,12.39
2023-10-30T09:17:58.142Z,12.48
2023-10-30T09:20:25.180Z,12.57
2023-10-30T09:22:52.201Z,12.65
2023-10-30T09:25:19.392Z,12.74
2023-10-30T09:27:46.952Z,12.79
2023-10-30T09:30:17.678Z,12.83
2023-10-30T09:32:44.901Z,12.82
2023-10-30T09:35:12.037Z,12.83
2023-10-30T09:37:40.292Z,12.87
2023-10-30T09:40:08.243Z,12.87
2023-10-30T09:42:37.271Z,12.88
2023-10-30T09:45:07.623Z,12.88
2023-10-30T09:47:35.405Z,12.91
2023-10-30T09:50:04.153Z,12.99
2023-10-30T09:52:32.607Z,13.06
2023-10-30T09:55:00.760Z,13.08
2023-10-30T09:57:29.710Z,13.11
2023-10-30T09:59:59.079Z,13.13
2023-10-30T10:02:26.685Z,13.17
2023-10-30T10:04:53.801Z,13.15
2023-10-30T10:07:22.630Z,13.15
2023-10-30T10:10:02.926Z,13.12
2023-10-30T10:12:32.413Z,13.12
2023-10-30T10:14:59.610Z,13.09
2023-10-30T10:17:27.011Z,13.09
2023-10-30T10:19:54.077Z,13.08
2023-10-30T10:22:32.417Z,13.06
2023-10-30T10:25:01.728Z,13.07
2023-10-30T10:27:29.065Z,13.06
2023-10-30T10:29:57.846Z,13.05
2023-10-30T10:32:29.455Z,13.03
2023-10-30T10:35:05.901Z,12.98
2023-10-30T10:37:34.928Z,12.98
2023-10-30T10:40:03.907Z,12.98
2023-10-30T10:42:34.260Z,13.00
2023-10-30T10:45:03.066Z,13.01
2023-10-30T10:47:30.823Z,13.06
2023-10-30T10:49:58.378Z,13.08
2023-10-30T10:52:32.462Z,13.13
2023-10-30T10:55:06.814Z,13.17
2023-10-30T10:57:50.658Z,13.22
2023-10-30T11:00:18.584Z,13.27
2023-10-30T11:02:50.532Z,13.30
2023-10-30T11:05:18.681Z,13.31
2023-10-30T11:08:17.040Z,13.29
2023-10-30T11:10:52.136Z,13.31
2023-10-30T11:14:10.109Z,13.34
2023-10-30T11:16:50.952Z,13.32
2023-10-30T11:19:21.708Z,13.30
2023-10-30T11:21:51.894Z,13.26
2023-10-30T11:24:54.803Z,13.23
2023-10-30T11:27:27.653Z,13.20
2023-10-30T11:30:04.484Z,13.16
2023-10-30T11:32:37.597Z,13.13
2023-10-30T11:35:05.097Z,13.11
2023-10-30T11:37:34.033Z,13.08
2023-10-30T11:40:06.138Z,13.07
2023-10-30T11:42:35.604Z,13.06
2023-10-30T11:45:24.205Z,13.05
2023-10-30T11:48:27.085Z,13.03
2023-10-30T11:50:58.224Z,13.03
2023-10-30T11:53:27.256Z,13.01
2023-10-30T11:55:58.525Z,13.00
2023-10-30T11:58:25.786Z,12.99
2023-10-30T12:00:52.904Z,12.98
2023-10-30T12:03:20.024Z,12.98
2023-10-30T12:05:47.984Z,12.97
2023-10-30T12:08:15.124Z,12.97
2023-10-30T12:10:42.331Z,12.99
2023-10-30T12:13:11.222Z,12.99
2023-10-30T12:15:38.682Z,13.03
2023-10-30T12:18:08.714Z,13.03
2023-10-30T12:20:35.739Z,13.07
2023-10-30T12:23:02.797Z,13.07
2023-10-30T12:25:29.818Z,13.08
2023-10-30T12:28:05.022Z,13.11
2023-10-30T12:30:36.775Z,13.12
2023-10-30T12:33:04.214Z,13.13
2023-10-30T12:35:31.794Z,13.14
2023-10-30T12:37:58.846Z,13.15
2023-10-30T12:40:26.008Z,13.17
2023-10-30T12:42:54.583Z,13.18
2023-10-30T12:45:22.407Z,13.19
2023-10-30T12:47:51.825Z,13.21
2023-10-30T12:50:19.700Z,13.21
2023-10-30T12:52:47.063Z,13.23
2023-10-30T12:55:14.426Z,13.24
2023-10-30T12:57:41.920Z,13.25
2023-10-30T13:00:11.101Z,13.26
2023-10-30T13:02:38.958Z,13.29
2023-10-30T13:05:07.212Z,13.29
2023-10-30T13:07:34.398Z,13.31
2023-10-30T13:10:02.840Z,13.33
2023-10-30T13:12:31.817Z,13.35
2023-10-30T13:14:59.098Z,13.35
2023-10-30T13:17:26.252Z,13.36
2023-10-30T13:19:54.122Z,13.38
2023-10-30T13:22:21.138Z,13.39
2023-10-30T13:24:50.311Z,13.40
2023-10-30T13:27:17.661Z,13.42
2023-10-30T13:29:44.987Z,13.42
2023-10-30T13:32:12.100Z,13.43
2023-10-30T13:34:39.205Z,13.44
2023-10-30T13:37:06.484Z,13.46
2023-10-30T13:39:33.500Z,13.45
2023-10-30T13:42:00.600Z,13.45
2023-10-30T13:44:27.660Z,13.45
2023-10-30T13:46:55.109Z,13.48
2023-10-30T13:49:22.204Z,13.46
2023-10-30T13:51:49.566Z,13.47
2023-10-30T13:54:16.689Z,13.49
2023-10-30T13:56:43.641Z,13.49
2023-10-30T13:59:10.722Z,13.50
2023-10-30T14:01:37.820Z,13.49
2023-10-30T14:04:05.277Z,13.50
2023-10-30T14:06:32.414Z,13.51
2023-10-30T14:08:59.785Z,13.51
2023-10-30T14:11:26.910Z,13.52
2023-10-30T14:13:54.239Z,13.51
2023-10-30T14:16:21.628Z,13.52
2023-10-30T14:18:50.406Z,13.52
2023-10-30T14:21:17.720Z,13.51
2023-10-30T14:23:44.883Z,13.52
2023-10-30T14:26:11.956Z,13.54
2023-10-30T14:28:39.071Z,13.52
2023-10-30T14:31:06.205Z,13.48
2023-10-30T14:33:33.435Z,13.54
2023-10-30T14:36:00.847Z,13.52
2023-10-30T14:38:29.217Z,13.53
2023-10-30T14:40:56.290Z,13.51
2023-10-30T14:43:23.321Z,13.53
2023-10-30T14:45:50.640Z,13.50
2023-10-30T14:48:17.685Z,13.51
2023-10-30T14:50:44.710Z,13.52
2023-10-30T14:53:11.786Z,13.54
2023-10-30T14:55:38.797Z,13.54
2023-10-30T14:58:05.929Z,13.53
2023-10-30T15:00:33.057Z,13.54
2023-10-30T15:03:00.373Z,13.56
2023-10-30T15:05:28.599Z,13.58
2023-10-30T15:07:56.987Z,13.59
2023-10-30T15:10:24.463Z,13.58
2023-10-30T15:12:51.704Z,13.56
2023-10-30T15:15:18.840Z,13.58
2023-10-30T15:17:46.066Z,13.55
2023-10-30T15:20:13.119Z,13.55
2023-10-30T15:22:40.270Z,13.52
2023-10-30T15:25:08.409Z,13.51
2023-10-30T15:27:37.101Z,13.53
2023-10-30T15:30:06.714Z,13.54
2023-10-30T15:32:37.472Z,13.50
2023-10-30T15:35:04.918Z,13.43
2023-10-30T15:37:32.075Z,13.48
2023-10-30T15:39:59.299Z,13.46
2023-10-30T15:42:27.246Z,13.47
2023-10-30T15:44:55.648Z,13.45
2023-10-30T15:47:25.606Z,13.44
2023-10-30T15:49:53.610Z,13.45
2023-10-30T15:59:56.693Z,13.38
2023-10-30T16:02:25.141Z,13.40
2023-10-30T16:07:22.797Z,13.40
2023-10-30T16:09:50.143Z,13.42
2023-10-30T16:12:18.641Z,13.38
2023-10-30T16:14:45.721Z,13.39
2023-10-30T16:20:21.863Z,13.40
2023-10-30T16:22:36.675Z,13.44
2023-10-30T16:25:05.084Z,13.45
2023-10-30T16:27:33.469Z,13.42
2023-10-30T16:30:02.818Z,13.40
2023-10-30T16:32:33.009Z,13.41
2023-10-30T16:35:00.224Z,13.41
2023-10-30T16:37:27.392Z,13.44
2023-10-30T16:39:56.369Z,13.44
2023-10-30T16:42:23.436Z,13.42
2023-10-30T16:44:54.779Z,13.42
2023-10-30T16:47:23.315Z,13.39
2023-10-30T16:49:50.847Z,13.41
2023-10-30T16:52:19.361Z,13.42
2023-10-30T16:54:46.414Z,13.40
2023-10-30T16:57:13.508Z,13.38
2023-10-30T16:59:40.574Z,13.36
2023-10-30T17:02:08.406Z,13.31
2023-10-30T17:04:35.513Z,13.28
2023-10-30T17:07:02.632Z,13.25
2023-10-30T17:09:30.110Z,13.21
2023-10-30T17:11:57.219Z,13.14
2023-10-30T17:14:25.210Z,13.10
2023-10-30T17:16:52.321Z,13.07
2023-10-30T17:19:19.461Z,13.05
2023-10-30T17:21:48.351Z,12.98
2023-10-30T17:24:15.426Z,12.95
2023-10-30T17:26:42.522Z,12.92
2023-10-30T17:29:09.542Z,12.90
2023-10-30T17:31:36.831Z,12.87
2023-10-30T17:34:06.258Z,12.86
2023-10-30T17:36:34.427Z,12.83
2023-10-30T17:39:08.348Z,12.85
2023-10-30T17:41:35.451Z,12.85
2023-10-30T17:44:02.574Z,12.86
2023-10-30T17:46:30.804Z,12.86
2023-10-30T17:48:58.378Z,12.88
2023-10-30T17:51:25.937Z,12.86
2023-10-30T17:53:53.035Z,12.88
2023-10-30T17:56:20.141Z,12.88
2023-10-30T17:58:47.335Z,12.89
2023-10-30T18:01:17.588Z,12.89
2023-10-30T18:03:46.330Z,12.89
2023-10-30T18:06:13.381Z,12.90
2023-10-30T18:08:40.590Z,12.91
2023-10-30T18:11:07.874Z,12.91
2023-10-30T18:13:35.082Z,12.91
2023-10-30T18:16:03.300Z,12.93
2023-10-30T18:18:32.333Z,12.93
2023-10-30T18:20:59.351Z,12.93
2023-10-30T18:23:28.314Z,12.96
2023-10-30T18:25:55.560Z,12.95
2023-10-30T18:28:24.632Z,12.95
2023-10-30T18:30:52.320Z,12.97
2023-10-30T18:33:19.482Z,12.98
2023-10-30T18:35:48.254Z,12.98
2023-10-30T18:38:16.985Z,12.98
2023-10-30T18:40:44.846Z,12.98
2023-10-30T18:43:13.305Z,12.99
2023-10-30T18:45:42.318Z,12.99
2023-10-30T18:48:09.822Z,12.99
2023-10-30T18:50:36.855Z,12.98
2023-10-30T18:53:04.305Z,13.00
2023-10-30T18:55:31.407Z,13.00
2023-10-30T18:58:02.319Z,12.99
2023-10-30T19:00:29.434Z,12.99
2023-10-30T19:02:56.667Z,13.00
2023-10-30T19:05:25.405Z,12.98
2023-10-30T19:07:52.553Z,12.98
2023-10-30T19:10:24.273Z,12.98
2023-10-30T19:12:51.495Z,12.99
2023-10-30T19:15:24.300Z,12.97
2023-10-30T19:17:52.189Z,12.96
2023-10-30T19:20:20.369Z,12.96
2023-10-30T19:22:47.604Z,12.96
2023-10-30T19:25:16.432Z,12.95
2023-10-30T19:27:46.367Z,12.93
2023-10-30T19:30:15.670Z,12.93
2023-10-30T19:32:42.960Z,12.92
2023-10-30T19:35:11.154Z,12.92
2023-10-30T19:37:39.384Z,12.90
2023-10-30T19:40:08.284Z,12.89
2023-10-30T19:42:36.064Z,12.89
2023-10-30T19:45:03.567Z,12.87
2023-10-30T19:47:30.704Z,12.86
2023-10-30T19:49:59.404Z,12.85
2023-10-30T19:52:27.243Z,12.83
2023-10-30T19:54:57.502Z,12.82
2023-10-30T19:57:27.264Z,12.81
2023-10-30T19:59:54.379Z,12.79
2023-10-30T20:02:23.301Z,12.79
2023-10-30T20:04:52.303Z,12.78
2023-10-30T20:07:19.381Z,12.77
2023-10-30T20:09:52.418Z,12.75
2023-10-30T20:12:27.132Z,12.72
2023-10-30T20:14:56.259Z,12.71
2023-10-30T20:17:23.354Z,12.69
2023-10-30T20:19:50.810Z,12.67
2023-10-30T20:22:20.110Z,12.66
2023-10-30T20:24:47.535Z,12.64
2023-10-30T20:27:14.597Z,12.64
2023-10-30T20:29:42.332Z,12.63
2023-10-30T20:32:10.648Z,12.61
2023-10-30T20:34:37.847Z,12.60
2023-10-30T20:37:04.995Z,12.60
2023-10-30T20:39:32.153Z,12.59
2023-10-30T20:41:59.177Z,12.58
2023-10-30T20:44:28.108Z,12.57
2023-10-30T20:46:55.304Z,12.54
2023-10-30T20:49:22.417Z,12.53
2023-10-30T20:51:50.076Z,12.51
2023-10-30T20:54:17.115Z,12.50
2023-10-30T20:56:47.236Z,12.48
2023-10-30T20:59:15.744Z,12.48
2023-10-30T21:01:44.371Z,12.47
2023-10-30T21:04:30.567Z,12.46
2023-10-30T21:07:16.201Z,12.45
2023-10-30T21:10:03.451Z,12.45
2023-10-30T21:12:31.090Z,12.43
2023-10-30T21:15:02.088Z,12.44
2023-10-30T21:17:29.662Z,12.41
2023-10-30T21:19:56.920Z,12.41
2023-10-30T21:22:24.035Z,12.40
2023-10-30T21:24:51.093Z,12.39
2023-10-30T21:27:19.277Z,12.36
2023-10-30T21:29:48.402Z,12.34
2023-10-30T21:32:15.525Z,12.33
2023-10-30T21:34:42.609Z,12.31
2023-10-30T21:37:09.893Z,12.28
2023-10-30T21:39:36.990Z,12.25
2023-10-30T21:42:04.451Z,12.24
2023-10-30T21:44:31.454Z,12.22
2023-10-30T21:46:58.594Z,12.20
2023-10-30T21:49:27.216Z,12.18
2023-10-30T21:51:54.266Z,12.16
2023-10-30T21:54:23.597Z,12.14
2023-10-30T21:56:50.675Z,12.11
2023-10-30T21:59:17.738Z,12.11
2023-10-30T22:01:44.877Z,12.09
2023-10-30T22:04:12.032Z,12.08
2023-10-30T22:06:39.075Z,12.06
2023-10-30T22:09:06.153Z,12.06
2023-10-30T22:11:34.465Z,12.07
2023-10-30T22:14:01.908Z,12.07
2023-10-30T22:16:29.106Z,12.08
2023-10-30T22:18:56.149Z,12.07
2023-10-30T22:21:23.343Z,12.07
2023-10-30T22:23:50.453Z,12.06
2023-10-30T22:26:17.530Z,12.07
2023-10-30T22:28:48.086Z,12.07
2023-10-30T22:31:15.429Z,12.03
2023-10-30T22:33:42.494Z,12.06
2023-10-30T22:36:09.804Z,12.06
2023-10-30T22:38:36.792Z,12.06
2023-10-30T22:41:04.014Z,12.06
2023-10-30T22:43:31.155Z,12.08
2023-10-30T22:45:58.424Z,12.08
2023-10-30T22:48:25.633Z,12.06
2023-10-30T22:50:52.631Z,12.06
2023-10-30T22:53:19.711Z,12.06
2023-10-30T22:55:46.934Z,12.06
2023-10-30T22:58:14.110Z,12.05
2023-10-30T23:00:43.912Z,12.05
2023-10-30T23:03:11.334Z,12.04
2023-10-30T23:05:38.868Z,12.04
2023-10-30T23:08:07.172Z,12.01
2023-10-30T23:10:34.821Z,11.99
2023-10-30T23:13:02.086Z,11.97
2023-10-30T23:15:29.206Z,11.96
2023-10-30T23:17:56.253Z,11.94
2023-10-30T23:20:25.333Z,11.91
2023-10-30T23:22:54.136Z,11.89
2023-10-30T23:25:21.349Z,11.87
2023-10-30T23:27:48.481Z,11.84
2023-10-30T23:30:15.651Z,11.81
2023-10-30T23:32:43.297Z,11.78
2023-10-30T23:35:11.671Z,11.77
2023-10-30T23:37:38.733Z,11.76
2023-10-30T23:40:06.761Z,11.74
2023-10-30T23:42:33.805Z,11.72
2023-10-30T23:45:02.916Z,11.71
2023-10-30T23:47:30.142Z,11.69
2023-10-30T23:49:57.529Z,11.67
2023-10-30T23:52:24.550Z,11.65
2023-10-30T23:54:51.790Z,11.64
2023-10-30T23:57:19.250Z,11.63
2023-10-30T23:59:46.249Z,11.60
